sensor_id;sensor_type;location;lat;lon;timestamp;P1;durP1;ratioP1;P2;durP2;ratioP2
36105;SDS011;22159;55.736;38.048;2022-09-27T00:01:42;3.15;;;2.10;;
36105;SDS011;22159;55.736;38.048;2022-09-27T00:04:10;2.35;;;1.92;;
36105;SDS011;22159;55.736;38.048;2022-09-27T00:06:36;1.90;;;1.80;;
36105;SDS011;22159;55.736;38.048;2022-09-27T00:09:02;2.67;;;1.70;;
36105;SDS011;22159;55.736;38.048;2022-09-27T00:11:29;1.92;;;1.73;;
36105;SDS011;22159;55.736;38.048;2022-09-27T00:13:57;1.60;;;1.50;;
36105;SDS011;22159;55.736;38.048;2022-09-27T00:16:31;3.13;;;1.90;;
36105;SDS011;22159;55.736;38.048;2022-09-27T00:18:58;2.08;;;1.70;;
36105;SDS011;22159;55.736;38.048;2022-09-27T00:21:24;2.10;;;1.90;;
36105;SDS011;22159;55.736;38.048;2022-09-27T00:23:50;1.83;;;1.73;;
36105;SDS011;22159;55.736;38.048;2022-09-27T00:26:16;1.90;;;1.70;;
36105;SDS011;22159;55.736;38.048;2022-09-27T00:28:42;2.13;;;1.92;;
36105;SDS011;22159;55.736;38.048;2022-09-27T00:31:19;1.83;;;1.58;;
36105;SDS011;22159;55.736;38.048;2022-09-27T00:33:46;2.10;;;1.85;;
36105;SDS011;22159;55.736;38.048;2022-09-27T00:36:12;1.67;;;1.52;;
36105;SDS011;22159;55.736;38.048;2022-09-27T00:38:39;1.80;;;1.60;;
36105;SDS011;22159;55.736;38.048;2022-09-27T00:41:05;2.00;;;1.80;;
36105;SDS011;22159;55.736;38.048;2022-09-27T00:46:20;2.13;;;1.75;;
36105;SDS011;22159;55.736;38.048;2022-09-27T00:48:48;1.60;;;1.50;;
36105;SDS011;22159;55.736;38.048;2022-09-27T00:51:17;2.22;;;1.83;;
36105;SDS011;22159;55.736;38.048;2022-09-27T00:53:52;1.70;;;1.60;;
36105;SDS011;22159;55.736;38.048;2022-09-27T00:56:21;1.70;;;1.60;;
36105;SDS011;22159;55.736;38.048;2022-09-27T00:58:49;1.60;;;1.50;;
36105;SDS011;22159;55.736;38.048;2022-09-27T01:01:17;1.63;;;1.52;;
36105;SDS011;22159;55.736;38.048;2022-09-27T01:06:09;1.75;;;1.65;;
36105;SDS011;22159;55.736;38.048;2022-09-27T01:08:35;3.45;;;2.00;;
36105;SDS011;22159;55.736;38.048;2022-09-27T01:11:12;1.95;;;1.70;;
36105;SDS011;22159;55.736;38.048;2022-09-27T01:17:06;1.70;;;1.60;;
36105;SDS011;22159;55.736;38.048;2022-09-27T01:29:51;2.00;;;1.80;;
36105;SDS011;22159;55.736;38.048;2022-09-27T01:32:26;1.50;;;1.40;;
36105;SDS011;22159;55.736;38.048;2022-09-27T01:42:44;2.05;;;1.60;;
36105;SDS011;22159;55.736;38.048;2022-09-27T01:45:58;1.60;;;1.50;;
36105;SDS011;22159;55.736;38.048;2022-09-27T01:47:59;1.92;;;1.75;;
36105;SDS011;22159;55.736;38.048;2022-09-27T01:50:31;1.55;;;1.45;;
36105;SDS011;22159;55.736;38.048;2022-09-27T01:53:00;1.70;;;1.48;;
36105;SDS011;22159;55.736;38.048;2022-09-27T01:55:28;1.60;;;1.50;;
36105;SDS011;22159;55.736;38.048;2022-09-27T01:57:57;1.50;;;1.40;;
36105;SDS011;22159;55.736;38.048;2022-09-27T02:00:25;1.67;;;1.58;;
36105;SDS011;22159;55.736;38.048;2022-09-27T02:02:56;1.70;;;1.60;;
36105;SDS011;22159;55.736;38.048;2022-09-27T02:05:25;2.38;;;1.45;;
36105;SDS011;22159;55.736;38.048;2022-09-27T02:07:57;1.73;;;1.60;;
36105;SDS011;22159;55.736;38.048;2022-09-27T02:10:36;1.52;;;1.42;;
36105;SDS011;22159;55.736;38.048;2022-09-27T02:16:05;1.33;;;1.10;;
36105;SDS011;22159;55.736;38.048;2022-09-27T02:18:56;1.83;;;1.50;;
36105;SDS011;22159;55.736;38.048;2022-09-27T02:21:30;1.42;;;1.33;;
36105;SDS011;22159;55.736;38.048;2022-09-27T02:23:57;1.60;;;1.50;;
36105;SDS011;22159;55.736;38.048;2022-09-27T02:26:40;1.60;;;1.50;;
36105;SDS011;22159;55.736;38.048;2022-09-27T02:31:36;1.80;;;1.52;;
36105;SDS011;22159;55.736;38.048;2022-09-27T02:34:04;1.60;;;1.50;;
36105;SDS011;22159;55.736;38.048;2022-09-27T02:36:31;1.70;;;1.60;;
36105;SDS011;22159;55.736;38.048;2022-09-27T02:38:57;1.40;;;1.27;;
36105;SDS011;22159;55.736;38.048;2022-09-27T02:41:25;1.40;;;1.30;;
36105;SDS011;22159;55.736;38.048;2022-09-27T02:43:52;1.35;;;1.25;;
36105;SDS011;22159;55.736;38.048;2022-09-27T02:59:52;1.63;;;1.20;;
36105;SDS011;22159;55.736;38.048;2022-09-27T03:02:31;1.60;;;1.50;;
36105;SDS011;22159;55.736;38.048;2022-09-27T03:05:01;1.63;;;1.52;;
36105;SDS011;22159;55.736;38.048;2022-09-27T03:07:28;1.60;;;1.40;;
36105;SDS011;22159;55.736;38.048;2022-09-27T03:09:55;2.13;;;1.40;;
36105;SDS011;22159;55.736;38.048;2022-09-27T03:12:21;1.60;;;1.45;;
36105;SDS011;22159;55.736;38.048;2022-09-27T03:14:54;1.70;;;1.40;;
36105;SDS011;22159;55.736;38.048;2022-09-27T03:17:22;1.70;;;1.60;;
36105;SDS011;22159;55.736;38.048;2022-09-27T03:19:48;1.60;;;1.50;;
36105;SDS011;22159;55.736;38.048;2022-09-27T03:22:14;2.63;;;1.40;;
36105;SDS011;22159;55.736;38.048;2022-09-27T03:24:40;2.60;;;1.45;;
36105;SDS011;22159;55.736;38.048;2022-09-27T03:27:06;1.52;;;1.23;;
36105;SDS011;22159;55.736;38.048;2022-09-27T03:29:33;2.40;;;1.52;;
36105;SDS011;22159;55.736;38.048;2022-09-27T03:31:59;1.80;;;1.30;;
36105;SDS011;22159;55.736;38.048;2022-09-27T03:34:25;1.50;;;1.40;;
36105;SDS011;22159;55.736;38.048;2022-09-27T03:36:51;1.75;;;1.50;;
36105;SDS011;22159;55.736;38.048;2022-09-27T03:39:17;2.00;;;1.40;;
36105;SDS011;22159;55.736;38.048;2022-09-27T03:41:43;1.50;;;1.40;;
36105;SDS011;22159;55.736;38.048;2022-09-27T03:44:09;1.88;;;1.60;;
36105;SDS011;22159;55.736;38.048;2022-09-27T03:46:35;2.45;;;1.65;;
36105;SDS011;22159;55.736;38.048;2022-09-27T03:49:01;8.73;;;1.95;;
36105;SDS011;22159;55.736;38.048;2022-09-27T03:51:27;5.40;;;1.90;;
36105;SDS011;22159;55.736;38.048;2022-09-27T03:53:53;3.63;;;1.90;;
36105;SDS011;22159;55.736;38.048;2022-09-27T03:56:19;3.65;;;2.00;;
36105;SDS011;22159;55.736;38.048;2022-09-27T03:58:45;2.85;;;1.95;;
36105;SDS011;22159;55.736;38.048;2022-09-27T04:01:13;3.03;;;2.10;;
36105;SDS011;22159;55.736;38.048;2022-09-27T04:03:39;3.80;;;2.20;;
36105;SDS011;22159;55.736;38.048;2022-09-27T04:06:06;8.05;;;2.05;;
36105;SDS011;22159;55.736;38.048;2022-09-27T04:08:32;2.65;;;1.73;;
36105;SDS011;22159;55.736;38.048;2022-09-27T04:10:58;3.78;;;1.92;;
36105;SDS011;22159;55.736;38.048;2022-09-27T04:13:24;2.42;;;1.85;;
36105;SDS011;22159;55.736;38.048;2022-09-27T04:15:50;2.15;;;1.75;;
36105;SDS011;22159;55.736;38.048;2022-09-27T04:18:16;4.63;;;2.17;;
36105;SDS011;22159;55.736;38.048;2022-09-27T04:20:42;2.88;;;1.83;;
36105;SDS011;22159;55.736;38.048;2022-09-27T04:23:08;3.30;;;1.83;;
36105;SDS011;22159;55.736;38.048;2022-09-27T04:25:34;2.88;;;1.92;;
36105;SDS011;22159;55.736;38.048;2022-09-27T04:28:00;4.43;;;2.00;;
36105;SDS011;22159;55.736;38.048;2022-09-27T04:30:27;3.75;;;1.92;;
36105;SDS011;22159;55.736;38.048;2022-09-27T04:32:53;3.90;;;2.05;;
36105;SDS011;22159;55.736;38.048;2022-09-27T04:35:19;3.08;;;1.95;;
36105;SDS011;22159;55.736;38.048;2022-09-27T04:38:04;3.25;;;2.03;;
36105;SDS011;22159;55.736;38.048;2022-09-27T04:40:32;4.55;;;1.77;;
36105;SDS011;22159;55.736;38.048;2022-09-27T04:42:59;2.50;;;2.00;;
36105;SDS011;22159;55.736;38.048;2022-09-27T04:45:25;4.22;;;2.35;;
36105;SDS011;22159;55.736;38.048;2022-09-27T04:47:51;3.83;;;1.83;;
36105;SDS011;22159;55.736;38.048;2022-09-27T04:50:18;4.75;;;2.20;;
36105;SDS011;22159;55.736;38.048;2022-09-27T04:52:48;2.47;;;2.00;;
36105;SDS011;22159;55.736;38.048;2022-09-27T04:57:41;2.10;;;1.80;;
36105;SDS011;22159;55.736;38.048;2022-09-27T05:00:07;4.18;;;2.53;;
36105;SDS011;22159;55.736;38.048;2022-09-27T05:02:33;3.65;;;2.30;;
36105;SDS011;22159;55.736;38.048;2022-09-27T05:04:59;3.47;;;2.35;;
36105;SDS011;22159;55.736;38.048;2022-09-27T05:07:26;5.28;;;2.72;;
36105;SDS011;22159;55.736;38.048;2022-09-27T05:09:52;2.80;;;2.50;;
36105;SDS011;22159;55.736;38.048;2022-09-27T05:12:18;4.15;;;2.80;;
36105;SDS011;22159;55.736;38.048;2022-09-27T05:14:44;4.43;;;2.75;;
36105;SDS011;22159;55.736;38.048;2022-09-27T05:17:10;5.78;;;3.70;;
36105;SDS011;22159;55.736;38.048;2022-09-27T05:19:37;7.10;;;3.60;;
36105;SDS011;22159;55.736;38.048;2022-09-27T05:22:04;7.53;;;3.90;;
36105;SDS011;22159;55.736;38.048;2022-09-27T05:24:30;4.85;;;3.47;;
36105;SDS011;22159;55.736;38.048;2022-09-27T05:26:57;6.70;;;4.25;;
36105;SDS011;22159;55.736;38.048;2022-09-27T05:29:23;6.70;;;4.72;;
36105;SDS011;22159;55.736;38.048;2022-09-27T05:31:49;7.35;;;4.80;;
36105;SDS011;22159;55.736;38.048;2022-09-27T05:34:15;9.05;;;4.95;;
36105;SDS011;22159;55.736;38.048;2022-09-27T05:36:45;9.38;;;4.90;;
36105;SDS011;22159;55.736;38.048;2022-09-27T05:39:11;11.00;;;6.05;;
36105;SDS011;22159;55.736;38.048;2022-09-27T05:41:37;9.60;;;6.00;;
36105;SDS011;22159;55.736;38.048;2022-09-27T05:44:05;8.88;;;5.30;;
36105;SDS011;22159;55.736;38.048;2022-09-27T05:46:31;8.52;;;5.55;;
36105;SDS011;22159;55.736;38.048;2022-09-27T05:48:57;10.82;;;6.13;;
36105;SDS011;22159;55.736;38.048;2022-09-27T05:51:23;10.70;;;6.30;;
36105;SDS011;22159;55.736;38.048;2022-09-27T05:53:49;10.57;;;5.72;;
36105;SDS011;22159;55.736;38.048;2022-09-27T05:56:15;8.90;;;5.53;;
36105;SDS011;22159;55.736;38.048;2022-09-27T05:58:41;10.38;;;6.22;;
36105;SDS011;22159;55.736;38.048;2022-09-27T06:01:08;9.40;;;5.80;;
36105;SDS011;22159;55.736;38.048;2022-09-27T06:03:34;9.10;;;5.70;;
36105;SDS011;22159;55.736;38.048;2022-09-27T06:06:01;10.85;;;6.25;;
36105;SDS011;22159;55.736;38.048;2022-09-27T06:08:33;9.32;;;6.00;;
36105;SDS011;22159;55.736;38.048;2022-09-27T06:11:00;11.32;;;6.55;;
36105;SDS011;22159;55.736;38.048;2022-09-27T06:13:29;12.23;;;6.63;;
36105;SDS011;22159;55.736;38.048;2022-09-27T06:15:55;9.63;;;6.53;;
36105;SDS011;22159;55.736;38.048;2022-09-27T06:18:23;10.27;;;6.03;;
36105;SDS011;22159;55.736;38.048;2022-09-27T06:20:49;8.85;;;5.97;;
36105;SDS011;22159;55.736;38.048;2022-09-27T06:23:19;8.57;;;5.78;;
36105;SDS011;22159;55.736;38.048;2022-09-27T06:25:46;10.32;;;6.05;;
36105;SDS011;22159;55.736;38.048;2022-09-27T06:28:13;9.57;;;6.35;;
36105;SDS011;22159;55.736;38.048;2022-09-27T06:30:40;7.95;;;5.95;;
36105;SDS011;22159;55.736;38.048;2022-09-27T06:33:08;9.73;;;6.03;;
36105;SDS011;22159;55.736;38.048;2022-09-27T06:35:35;7.80;;;5.50;;
36105;SDS011;22159;55.736;38.048;2022-09-27T06:38:04;8.27;;;5.70;;
36105;SDS011;22159;55.736;38.048;2022-09-27T06:40:34;9.15;;;5.90;;
36105;SDS011;22159;55.736;38.048;2022-09-27T06:43:09;8.85;;;5.85;;
36105;SDS011;22159;55.736;38.048;2022-09-27T06:45:36;9.18;;;5.55;;
36105;SDS011;22159;55.736;38.048;2022-09-27T06:48:06;7.13;;;4.88;;
36105;SDS011;22159;55.736;38.048;2022-09-27T06:50:33;8.80;;;5.53;;
36105;SDS011;22159;55.736;38.048;2022-09-27T06:53:00;10.27;;;5.80;;
36105;SDS011;22159;55.736;38.048;2022-09-27T06:55:26;7.82;;;5.32;;
36105;SDS011;22159;55.736;38.048;2022-09-27T06:57:55;7.70;;;5.55;;
36105;SDS011;22159;55.736;38.048;2022-09-27T07:00:40;8.32;;;5.78;;
36105;SDS011;22159;55.736;38.048;2022-09-27T07:03:07;6.70;;;4.70;;
36105;SDS011;22159;55.736;38.048;2022-09-27T07:05:33;6.75;;;5.25;;
36105;SDS011;22159;55.736;38.048;2022-09-27T07:08:00;8.23;;;5.35;;
36105;SDS011;22159;55.736;38.048;2022-09-27T07:10:27;6.97;;;5.10;;
36105;SDS011;22159;55.736;38.048;2022-09-27T07:12:54;9.32;;;5.65;;
36105;SDS011;22159;55.736;38.048;2022-09-27T07:15:22;8.63;;;5.90;;
36105;SDS011;22159;55.736;38.048;2022-09-27T07:17:57;7.82;;;5.38;;
36105;SDS011;22159;55.736;38.048;2022-09-27T07:20:24;8.43;;;5.47;;
36105;SDS011;22159;55.736;38.048;2022-09-27T07:22:50;7.05;;;5.45;;
36105;SDS011;22159;55.736;38.048;2022-09-27T07:25:17;7.55;;;6.00;;
36105;SDS011;22159;55.736;38.048;2022-09-27T07:27:43;8.52;;;5.80;;
36105;SDS011;22159;55.736;38.048;2022-09-27T07:30:10;8.18;;;5.40;;
36105;SDS011;22159;55.736;38.048;2022-09-27T07:32:36;15.35;;;5.75;;
36105;SDS011;22159;55.736;38.048;2022-09-27T07:35:03;8.98;;;5.57;;
36105;SDS011;22159;55.736;38.048;2022-09-27T07:37:32;8.55;;;5.35;;
36105;SDS011;22159;55.736;38.048;2022-09-27T07:39:59;8.65;;;5.70;;
36105;SDS011;22159;55.736;38.048;2022-09-27T07:42:25;7.28;;;5.60;;
36105;SDS011;22159;55.736;38.048;2022-09-27T07:44:55;7.80;;;5.47;;
36105;SDS011;22159;55.736;38.048;2022-09-27T07:47:21;7.90;;;5.35;;
36105;SDS011;22159;55.736;38.048;2022-09-27T07:49:50;9.57;;;6.43;;
36105;SDS011;22159;55.736;38.048;2022-09-27T07:52:17;8.82;;;5.40;;
36105;SDS011;22159;55.736;38.048;2022-09-27T07:54:44;7.63;;;5.43;;
36105;SDS011;22159;55.736;38.048;2022-09-27T07:57:10;8.10;;;5.97;;
36105;SDS011;22159;55.736;38.048;2022-09-27T07:59:36;8.15;;;5.82;;
36105;SDS011;22159;55.736;38.048;2022-09-27T08:02:02;7.63;;;5.60;;
36105;SDS011;22159;55.736;38.048;2022-09-27T08:04:28;7.80;;;5.88;;
36105;SDS011;22159;55.736;38.048;2022-09-27T08:06:54;9.50;;;5.28;;
36105;SDS011;22159;55.736;38.048;2022-09-27T08:09:20;8.30;;;6.30;;
36105;SDS011;22159;55.736;38.048;2022-09-27T08:11:46;6.90;;;5.80;;
36105;SDS011;22159;55.736;38.048;2022-09-27T08:14:12;6.70;;;5.65;;
36105;SDS011;22159;55.736;38.048;2022-09-27T08:16:39;7.20;;;5.63;;
36105;SDS011;22159;55.736;38.048;2022-09-27T08:19:05;6.95;;;5.57;;
36105;SDS011;22159;55.736;38.048;2022-09-27T08:21:31;7.00;;;5.20;;
36105;SDS011;22159;55.736;38.048;2022-09-27T08:23:57;6.70;;;5.30;;
36105;SDS011;22159;55.736;38.048;2022-09-27T08:26:26;6.40;;;5.40;;
36105;SDS011;22159;55.736;38.048;2022-09-27T08:28:52;6.90;;;5.25;;
36105;SDS011;22159;55.736;38.048;2022-09-27T08:31:18;7.78;;;5.35;;
36105;SDS011;22159;55.736;38.048;2022-09-27T08:33:48;9.02;;;5.40;;
36105;SDS011;22159;55.736;38.048;2022-09-27T08:36:15;6.93;;;5.28;;
36105;SDS011;22159;55.736;38.048;2022-09-27T08:38:41;7.60;;;4.97;;
36105;SDS011;22159;55.736;38.048;2022-09-27T08:49:04;7.03;;;5.78;;
36105;SDS011;22159;55.736;38.048;2022-09-27T08:51:31;6.20;;;5.07;;
36105;SDS011;22159;55.736;38.048;2022-09-27T08:54:04;7.18;;;5.53;;
36105;SDS011;22159;55.736;38.048;2022-09-27T08:56:31;6.60;;;5.30;;
36105;SDS011;22159;55.736;38.048;2022-09-27T08:59:00;7.55;;;5.28;;
36105;SDS011;22159;55.736;38.048;2022-09-27T09:01:27;8.35;;;5.72;;
36105;SDS011;22159;55.736;38.048;2022-09-27T09:03:54;6.72;;;5.75;;
36105;SDS011;22159;55.736;38.048;2022-09-27T09:17:01;6.50;;;5.13;;
36105;SDS011;22159;55.736;38.048;2022-09-27T09:19:53;5.18;;;4.60;;
36105;SDS011;22159;55.736;38.048;2022-09-27T09:22:23;6.38;;;5.47;;
36105;SDS011;22159;55.736;38.048;2022-09-27T09:35:02;6.72;;;4.93;;
36105;SDS011;22159;55.736;38.048;2022-09-27T09:39:58;6.63;;;4.40;;
36105;SDS011;22159;55.736;38.048;2022-09-27T09:50:16;4.93;;;4.25;;
36105;SDS011;22159;55.736;38.048;2022-09-27T09:52:44;5.00;;;4.50;;
36105;SDS011;22159;55.736;38.048;2022-09-27T09:57:39;7.00;;;4.57;;
36105;SDS011;22159;55.736;38.048;2022-09-27T10:00:15;4.90;;;4.03;;
36105;SDS011;22159;55.736;38.048;2022-09-27T10:02:43;4.78;;;3.90;;
36105;SDS011;22159;55.736;38.048;2022-09-27T10:05:13;6.07;;;4.55;;
36105;SDS011;22159;55.736;38.048;2022-09-27T10:07:40;5.70;;;4.05;;
36105;SDS011;22159;55.736;38.048;2022-09-27T10:10:07;5.55;;;4.32;;
36105;SDS011;22159;55.736;38.048;2022-09-27T10:12:33;5.60;;;4.40;;
36105;SDS011;22159;55.736;38.048;2022-09-27T10:15:02;4.63;;;3.83;;
36105;SDS011;22159;55.736;38.048;2022-09-27T10:17:38;4.70;;;3.95;;
36105;SDS011;22159;55.736;38.048;2022-09-27T10:20:04;5.32;;;4.10;;
36105;SDS011;22159;55.736;38.048;2022-09-27T10:22:38;5.30;;;3.92;;
36105;SDS011;22159;55.736;38.048;2022-09-27T10:25:05;5.32;;;3.80;;
36105;SDS011;22159;55.736;38.048;2022-09-27T10:30:05;4.28;;;3.75;;
36105;SDS011;22159;55.736;38.048;2022-09-27T10:32:32;4.50;;;3.80;;
36105;SDS011;22159;55.736;38.048;2022-09-27T10:37:46;4.88;;;4.10;;
36105;SDS011;22159;55.736;38.048;2022-09-27T10:40:28;4.85;;;3.17;;
36105;SDS011;22159;55.736;38.048;2022-09-27T10:42:55;4.20;;;3.78;;
36105;SDS011;22159;55.736;38.048;2022-09-27T10:45:28;5.10;;;3.90;;
36105;SDS011;22159;55.736;38.048;2022-09-27T10:47:55;4.15;;;3.53;;
36105;SDS011;22159;55.736;38.048;2022-09-27T10:50:25;4.88;;;3.65;;
36105;SDS011;22159;55.736;38.048;2022-09-27T10:53:13;4.05;;;3.65;;
36105;SDS011;22159;55.736;38.048;2022-09-27T10:55:38;4.40;;;3.45;;
36105;SDS011;22159;55.736;38.048;2022-09-27T10:58:04;5.35;;;3.60;;
36105;SDS011;22159;55.736;38.048;2022-09-27T11:00:34;3.78;;;3.40;;
36105;SDS011;22159;55.736;38.048;2022-09-27T11:03:02;4.47;;;3.17;;
36105;SDS011;22159;55.736;38.048;2022-09-27T11:05:30;3.30;;;3.00;;
36105;SDS011;22159;55.736;38.048;2022-09-27T11:07:58;3.92;;;3.17;;
36105;SDS011;22159;55.736;38.048;2022-09-27T11:10:28;3.65;;;3.25;;
36105;SDS011;22159;55.736;38.048;2022-09-27T11:18:35;4.13;;;3.03;;
36105;SDS011;22159;55.736;38.048;2022-09-27T11:26:04;3.53;;;2.78;;
36105;SDS011;22159;55.736;38.048;2022-09-27T11:31:07;4.00;;;3.00;;
36105;SDS011;22159;55.736;38.048;2022-09-27T11:52:03;3.40;;;2.67;;
36105;SDS011;22159;55.736;38.048;2022-09-27T12:10:15;3.03;;;2.47;;
36105;SDS011;22159;55.736;38.048;2022-09-27T12:12:43;3.95;;;2.30;;
36105;SDS011;22159;55.736;38.048;2022-09-27T12:15:15;3.65;;;2.80;;
36105;SDS011;22159;55.736;38.048;2022-09-27T12:17:43;3.55;;;2.33;;
36105;SDS011;22159;55.736;38.048;2022-09-27T12:20:13;4.13;;;2.80;;
36105;SDS011;22159;55.736;38.048;2022-09-27T12:22:46;3.50;;;2.65;;
36105;SDS011;22159;55.736;38.048;2022-09-27T12:25:13;3.33;;;2.42;;
36105;SDS011;22159;55.736;38.048;2022-09-27T12:27:53;2.97;;;2.45;;
36105;SDS011;22159;55.736;38.048;2022-09-27T12:30:21;3.03;;;2.38;;
36105;SDS011;22159;55.736;38.048;2022-09-27T12:38:22;3.58;;;2.70;;
36105;SDS011;22159;55.736;38.048;2022-09-27T12:40:51;3.13;;;2.17;;
36105;SDS011;22159;55.736;38.048;2022-09-27T12:43:18;4.22;;;3.00;;
36105;SDS011;22159;55.736;38.048;2022-09-27T12:50:42;3.00;;;2.28;;
36105;SDS011;22159;55.736;38.048;2022-09-27T12:53:20;3.17;;;2.47;;
36105;SDS011;22159;55.736;38.048;2022-09-27T12:58:42;4.35;;;2.40;;
36105;SDS011;22159;55.736;38.048;2022-09-27T13:11:27;2.80;;;2.30;;
36105;SDS011;22159;55.736;38.048;2022-09-27T13:13:55;3.33;;;2.45;;
36105;SDS011;22159;55.736;38.048;2022-09-27T13:16:23;2.50;;;2.10;;
36105;SDS011;22159;55.736;38.048;2022-09-27T13:18:53;2.85;;;2.15;;
36105;SDS011;22159;55.736;38.048;2022-09-27T13:24:28;2.17;;;1.77;;
36105;SDS011;22159;55.736;38.048;2022-09-27T13:26:54;2.03;;;1.83;;
36105;SDS011;22159;55.736;38.048;2022-09-27T13:29:23;2.83;;;1.92;;
36105;SDS011;22159;55.736;38.048;2022-09-27T13:34:38;2.85;;;2.20;;
36105;SDS011;22159;55.736;38.048;2022-09-27T13:39:49;3.30;;;2.03;;
36105;SDS011;22159;55.736;38.048;2022-09-27T13:42:27;2.20;;;2.00;;
36105;SDS011;22159;55.736;38.048;2022-09-27T13:45:03;2.63;;;1.73;;
36105;SDS011;22159;55.736;38.048;2022-09-27T13:47:37;2.22;;;2.00;;
36105;SDS011;22159;55.736;38.048;2022-09-27T13:55:43;2.50;;;1.90;;
36105;SDS011;22159;55.736;38.048;2022-09-27T13:58:21;2.47;;;1.80;;
36105;SDS011;22159;55.736;38.048;2022-09-27T14:00:53;2.83;;;1.88;;
36105;SDS011;22159;55.736;38.048;2022-09-27T14:03:23;3.03;;;1.80;;
36105;SDS011;22159;55.736;38.048;2022-09-27T14:05:51;2.17;;;1.50;;
36105;SDS011;22159;55.736;38.048;2022-09-27T14:08:22;1.52;;;1.42;;
36105;SDS011;22159;55.736;38.048;2022-09-27T14:10:50;2.40;;;1.77;;
36105;SDS011;22159;55.736;38.048;2022-09-27T14:13:18;2.20;;;1.80;;
36105;SDS011;22159;55.736;38.048;2022-09-27T14:15:44;1.50;;;1.40;;
36105;SDS011;22159;55.736;38.048;2022-09-27T14:18:11;1.85;;;1.52;;
36105;SDS011;22159;55.736;38.048;2022-09-27T14:20:41;1.88;;;1.60;;
36105;SDS011;22159;55.736;38.048;2022-09-27T14:23:26;2.67;;;1.80;;
36105;SDS011;22159;55.736;38.048;2022-09-27T14:25:53;1.88;;;1.67;;
36105;SDS011;22159;55.736;38.048;2022-09-27T14:28:25;2.03;;;1.50;;
36105;SDS011;22159;55.736;38.048;2022-09-27T14:33:36;3.40;;;1.70;;
36105;SDS011;22159;55.736;38.048;2022-09-27T14:36:06;2.60;;;2.00;;
36105;SDS011;22159;55.736;38.048;2022-09-27T14:38:56;1.70;;;1.60;;
36105;SDS011;22159;55.736;38.048;2022-09-27T14:41:22;1.98;;;1.60;;
36105;SDS011;22159;55.736;38.048;2022-09-27T14:43:48;2.42;;;1.70;;
36105;SDS011;22159;55.736;38.048;2022-09-27T14:46:28;1.98;;;1.50;;
36105;SDS011;22159;55.736;38.048;2022-09-27T14:48:54;2.72;;;1.90;;
36105;SDS011;22159;55.736;38.048;2022-09-27T14:51:30;2.90;;;1.83;;
36105;SDS011;22159;55.736;38.048;2022-09-27T14:53:57;1.50;;;1.40;;
36105;SDS011;22159;55.736;38.048;2022-09-27T14:56:29;2.08;;;1.58;;
36105;SDS011;22159;55.736;38.048;2022-09-27T14:59:01;2.25;;;1.70;;
36105;SDS011;22159;55.736;38.048;2022-09-27T15:01:27;3.03;;;1.35;;
36105;SDS011;22159;55.736;38.048;2022-09-27T15:03:55;2.83;;;1.48;;
36105;SDS011;22159;55.736;38.048;2022-09-27T15:06:21;1.95;;;1.60;;
36105;SDS011;22159;55.736;38.048;2022-09-27T15:08:48;2.50;;;1.60;;
36105;SDS011;22159;55.736;38.048;2022-09-27T15:11:16;2.10;;;1.60;;
36105;SDS011;22159;55.736;38.048;2022-09-27T15:13:43;2.00;;;1.40;;
36105;SDS011;22159;55.736;38.048;2022-09-27T15:16:17;3.33;;;1.38;;
36105;SDS011;22159;55.736;38.048;2022-09-27T15:18:47;3.05;;;1.67;;
36105;SDS011;22159;55.736;38.048;2022-09-27T15:21:15;2.15;;;1.63;;
36105;SDS011;22159;55.736;38.048;2022-09-27T15:23:51;2.45;;;1.80;;
36105;SDS011;22159;55.736;38.048;2022-09-27T15:26:23;2.20;;;1.50;;
36105;SDS011;22159;55.736;38.048;2022-09-27T15:28:51;2.80;;;1.60;;
36105;SDS011;22159;55.736;38.048;2022-09-27T15:31:27;3.35;;;1.42;;
36105;SDS011;22159;55.736;38.048;2022-09-27T15:33:54;2.40;;;1.67;;
36105;SDS011;22159;55.736;38.048;2022-09-27T15:37:05;1.73;;;1.45;;
36105;SDS011;22159;55.736;38.048;2022-09-27T15:39:07;2.40;;;1.80;;
36105;SDS011;22159;55.736;38.048;2022-09-27T15:44:07;2.55;;;1.42;;
36105;SDS011;22159;55.736;38.048;2022-09-27T15:46:44;1.70;;;1.58;;
36105;SDS011;22159;55.736;38.048;2022-09-27T15:49:28;2.40;;;1.45;;
36105;SDS011;22159;55.736;38.048;2022-09-27T15:51:58;2.42;;;1.55;;
36105;SDS011;22159;55.736;38.048;2022-09-27T15:54:28;1.20;;;1.10;;
36105;SDS011;22159;55.736;38.048;2022-09-27T15:56:56;2.42;;;1.58;;
36105;SDS011;22159;55.736;38.048;2022-09-27T15:59:26;2.75;;;1.40;;
36105;SDS011;22159;55.736;38.048;2022-09-27T16:01:54;2.53;;;1.40;;
36105;SDS011;22159;55.736;38.048;2022-09-27T16:04:20;2.65;;;1.63;;
36105;SDS011;22159;55.736;38.048;2022-09-27T16:06:46;2.20;;;1.65;;
36105;SDS011;22159;55.736;38.048;2022-09-27T16:09:16;2.15;;;1.40;;
36105;SDS011;22159;55.736;38.048;2022-09-27T16:11:43;3.60;;;1.50;;
36105;SDS011;22159;55.736;38.048;2022-09-27T16:14:09;3.20;;;1.40;;
36105;SDS011;22159;55.736;38.048;2022-09-27T16:16:37;4.28;;;1.70;;
36105;SDS011;22159;55.736;38.048;2022-09-27T16:19:04;2.60;;;1.40;;
36105;SDS011;22159;55.736;38.048;2022-09-27T16:21:30;2.25;;;1.27;;
36105;SDS011;22159;55.736;38.048;2022-09-27T16:23:56;2.75;;;1.48;;
36105;SDS011;22159;55.736;38.048;2022-09-27T16:26:23;2.47;;;1.50;;
36105;SDS011;22159;55.736;38.048;2022-09-27T16:28:49;1.95;;;1.30;;
36105;SDS011;22159;55.736;38.048;2022-09-27T16:31:15;1.80;;;1.42;;
36105;SDS011;22159;55.736;38.048;2022-09-27T16:33:42;1.63;;;1.20;;
36105;SDS011;22159;55.736;38.048;2022-09-27T16:36:08;2.80;;;1.50;;
36105;SDS011;22159;55.736;38.048;2022-09-27T16:38:39;2.55;;;1.52;;
36105;SDS011;22159;55.736;38.048;2022-09-27T16:41:05;2.97;;;1.40;;
36105;SDS011;22159;55.736;38.048;2022-09-27T16:43:31;2.85;;;1.50;;
36105;SDS011;22159;55.736;38.048;2022-09-27T16:46:04;2.50;;;1.30;;
36105;SDS011;22159;55.736;38.048;2022-09-27T16:48:32;3.60;;;1.48;;
36105;SDS011;22159;55.736;38.048;2022-09-27T16:51:15;2.15;;;1.40;;
36105;SDS011;22159;55.736;38.048;2022-09-27T16:54:00;2.33;;;1.30;;
36105;SDS011;22159;55.736;38.048;2022-09-27T16:56:26;3.50;;;1.48;;
36105;SDS011;22159;55.736;38.048;2022-09-27T16:58:53;2.72;;;1.60;;
36105;SDS011;22159;55.736;38.048;2022-09-27T17:01:19;3.45;;;1.30;;
36105;SDS011;22159;55.736;38.048;2022-09-27T17:03:49;2.15;;;1.50;;
36105;SDS011;22159;55.736;38.048;2022-09-27T17:06:16;2.70;;;1.45;;
36105;SDS011;22159;55.736;38.048;2022-09-27T17:08:42;1.20;;;1.10;;
36105;SDS011;22159;55.736;38.048;2022-09-27T17:11:10;1.42;;;1.17;;
36105;SDS011;22159;55.736;38.048;2022-09-27T17:13:36;3.13;;;1.35;;
36105;SDS011;22159;55.736;38.048;2022-09-27T17:16:03;2.22;;;1.52;;
36105;SDS011;22159;55.736;38.048;2022-09-27T17:18:29;2.38;;;1.30;;
36105;SDS011;22159;55.736;38.048;2022-09-27T17:21:02;2.95;;;1.33;;
36105;SDS011;22159;55.736;38.048;2022-09-27T17:23:29;3.13;;;1.42;;
36105;SDS011;22159;55.736;38.048;2022-09-27T17:26:00;2.63;;;1.50;;
36105;SDS011;22159;55.736;38.048;2022-09-27T17:30:52;2.00;;;1.48;;
36105;SDS011;22159;55.736;38.048;2022-09-27T17:33:20;1.83;;;1.30;;
36105;SDS011;22159;55.736;38.048;2022-09-27T17:35:46;1.95;;;1.52;;
36105;SDS011;22159;55.736;38.048;2022-09-27T17:38:12;3.10;;;1.60;;
36105;SDS011;22159;55.736;38.048;2022-09-27T17:40:38;2.22;;;1.52;;
36105;SDS011;22159;55.736;38.048;2022-09-27T17:43:04;2.47;;;1.55;;
36105;SDS011;22159;55.736;38.048;2022-09-27T17:45:32;2.60;;;1.38;;
36105;SDS011;22159;55.736;38.048;2022-09-27T17:47:58;1.83;;;1.52;;
36105;SDS011;22159;55.736;38.048;2022-09-27T17:50:46;2.13;;;1.35;;